Wetterdaten: Woche 16.04.07 - 22.04.07 (KW16)
Datum Zeit Temperatur Luftfeuchte Luftdruck Niederschlag Wind Richtung Sonnenschein UV-Strahlung Solar Taupunkt Windchill Windben
16.04.2007 00:00 13.4 C 58 % 1019.6 hPa 0.0 l/m 2.2 km/h (1 Bft) O 0.00 h 0.0 UV-I 0 W/m 5.2 C 13.4 C 3.5 km/h (1 Bft)
16.04.2007 01:00 11.3 C 66 % 1019.6 hPa 0.0 l/m 1.2 km/h (1 Bft) O 0.00 h 0.0 UV-I 0 W/m 5.1 C 11.3 C 2.6 km/h (1 Bft)
16.04.2007 02:00 10.5 C 67 % 1019.2 hPa 0.0 l/m 1.8 km/h (1 Bft) O 0.00 h 0.0 UV-I 0 W/m 4.7 C 10.5 C 3.0 km/h (1 Bft)
16.04.2007 03:00 10.1 C 68 % 1019.0 hPa 0.0 l/m 0.7 km/h (0 Bft) O 0.00 h 0.0 UV-I 0 W/m 4.4 C 10.1 C 2.0 km/h (1 Bft)
16.04.2007 04:00 8.6 C 75 % 1018.8 hPa 0.0 l/m 1.2 km/h (1 Bft) O 0.00 h 0.0 UV-I 0 W/m 4.4 C 8.6 C 2.4 km/h (1 Bft)
16.04.2007 05:00 7.7 C 79 % 1019.2 hPa 0.0 l/m 1.4 km/h (1 Bft) O 0.00 h 0.0 UV-I 0 W/m 4.2 C 7.6 C 2.8 km/h (1 Bft)
16.04.2007 06:00 7.2 C 81 % 1019.4 hPa 0.0 l/m 0.7 km/h (0 Bft) O 0.05 h 0.0 UV-I 11 W/m 4.1 C 7.2 C 1.4 km/h (1 Bft)
16.04.2007 07:00 7.6 C 81 % 1019.8 hPa 0.0 l/m 0.2 km/h (0 Bft) O 0.10 h 0.0 UV-I 44 W/m 4.6 C 7.6 C 0.7 km/h (0 Bft)
16.04.2007 08:00 10.5 C 72 % 1019.9 hPa 0.0 l/m 0.3 km/h (0 Bft) O 1.00 h 0.8 UV-I 240 W/m 5.8 C 10.5 C 1.0 km/h (0 Bft)
16.04.2007 09:00 14.6 C 60 % 1019.8 hPa 0.0 l/m 1.9 km/h (1 Bft) O 1.00 h 1.5 UV-I 405 W/m 6.6 C 14.6 C 3.9 km/h (1 Bft)
16.04.2007 10:00 17.8 C 45 % 1019.4 hPa 0.0 l/m 3.9 km/h (1 Bft) O-SO 1.00 h 2.9 UV-I 559 W/m 5.8 C 17.8 C 6.8 km/h (2 Bft)
16.04.2007 11:00 19.5 C 42 % 1019.2 hPa 0.0 l/m 5.4 km/h (1 Bft) O-SO 1.00 h 4.2 UV-I 678 W/m 6.3 C 19.5 C 8.8 km/h (2 Bft)
16.04.2007 12:00 21.2 C 40 % 1018.8 hPa 0.0 l/m 5.2 km/h (1 Bft) SO 1.00 h 4.9 UV-I 752 W/m 7.2 C 21.2 C 8.6 km/h (2 Bft)
16.04.2007 13:00 22.6 C 38 % 1018.1 hPa 0.0 l/m 7.0 km/h (2 Bft) O-SO 1.00 h 5.2 UV-I 774 W/m 7.6 C 22.6 C 11.4 km/h (2 Bft)
16.04.2007 14:00 23.3 C 37 % 1017.6 hPa 0.0 l/m 10.4 km/h (2 Bft) O-SO 1.00 h 4.9 UV-I 743 W/m 7.8 C 23.3 C 15.0 km/h (3 Bft)
16.04.2007 15:00 23.7 C 36 % 1017.4 hPa 0.0 l/m 10.0 km/h (2 Bft) O-SO 1.00 h 3.9 UV-I 666 W/m 7.8 C 23.7 C 15.0 km/h (3 Bft)
16.04.2007 16:00 23.9 C 36 % 1017.3 hPa 0.0 l/m 8.7 km/h (2 Bft) O-SO 1.00 h 2.6 UV-I 545 W/m 7.8 C 23.9 C 13.4 km/h (3 Bft)
16.04.2007 17:00 24.2 C 34 % 1017.0 hPa 0.0 l/m 4.9 km/h (1 Bft) O-SO 1.00 h 1.4 UV-I 387 W/m 7.3 C 24.2 C 8.9 km/h (2 Bft)
16.04.2007 18:00 23.7 C 33 % 1016.7 hPa 0.0 l/m 3.9 km/h (1 Bft) O-SO 1.00 h 0.7 UV-I 226 W/m 6.6 C 23.7 C 6.8 km/h (2 Bft)
16.04.2007 19:00 22.9 C 32 % 1016.8 hPa 0.0 l/m 1.5 km/h (1 Bft) N-NO 0.45 h 0.0 UV-I 72 W/m 5.4 C 22.9 C 3.7 km/h (1 Bft)
16.04.2007 20:00 19.9 C 41 % 1017.1 hPa 0.0 l/m 1.9 km/h (1 Bft) O-SO 0.00 h 0.0 UV-I 8 W/m 6.2 C 19.9 C 3.4 km/h (1 Bft)
16.04.2007 21:00 17.3 C 50 % 1017.5 hPa 0.0 l/m 0.4 km/h (0 Bft) O-SO 0.00 h 0.0 UV-I 0 W/m 6.8 C 17.3 C 1.1 km/h (1 Bft)
16.04.2007 22:00 14.8 C 60 % 1017.8 hPa 0.0 l/m 0.4 km/h (0 Bft) O-SO 0.00 h 0.0 UV-I 0 W/m 7.1 C 14.8 C 0.7 km/h (0 Bft)
16.04.2007 23:00 13.6 C 64 % 1017.7 hPa 0.0 l/m 1.0 km/h (0 Bft) NO 0.00 h 0.0 UV-I 0 W/m 7.0 C 13.6 C 2.3 km/h (1 Bft)
17.04.2007 00:00 11.9 C 71 % 1017.7 hPa 0.0 l/m 2.3 km/h (1 Bft) O 0.00 h 0.0 UV-I 0 W/m 6.7 C 11.9 C 3.4 km/h (1 Bft)
17.04.2007 01:00 11.3 C 73 % 1017.9 hPa 0.0 l/m 2.1 km/h (1 Bft) O 0.00 h 0.0 UV-I 0 W/m 6.5 C 11.3 C 3.3 km/h (1 Bft)
17.04.2007 02:00 10.4 C 74 % 1017.6 hPa 0.0 l/m 2.7 km/h (1 Bft) O 0.00 h 0.0 UV-I 0 W/m 6.1 C 10.4 C 3.9 km/h (1 Bft)
17.04.2007 03:00 9.4 C 78 % 1017.4 hPa 0.0 l/m 2.1 km/h (1 Bft) O 0.00 h 0.0 UV-I 0 W/m 5.6 C 9.3 C 3.6 km/h (1 Bft)
17.04.2007 04:00 8.1 C 82 % 1017.2 hPa 0.0 l/m 2.2 km/h (1 Bft) O 0.00 h 0.0 UV-I 0 W/m 5.1 C 8.0 C 3.2 km/h (1 Bft)
17.04.2007 05:00 7.3 C 84 % 1017.2 hPa 0.0 l/m 1.0 km/h (0 Bft) O-SO 0.00 h 0.0 UV-I 0 W/m 4.8 C 7.3 C 1.9 km/h (1 Bft)
17.04.2007 06:00 6.4 C 86 % 1017.5 hPa 0.0 l/m 1.0 km/h (0 Bft) O-SO 0.00 h 0.0 UV-I 9 W/m 4.3 C 6.4 C 2.0 km/h (1 Bft)
17.04.2007 07:00 6.7 C 88 % 1018.1 hPa 0.0 l/m 0.3 km/h (0 Bft) O-SO 0.08 h 0.0 UV-I 36 W/m 4.8 C 6.7 C 0.7 km/h (0 Bft)
17.04.2007 08:00 9.5 C 78 % 1018.6 hPa 0.0 l/m 0.0 km/h (0 Bft) N 1.00 h 0.8 UV-I 235 W/m 5.9 C 9.5 C 0.3 km/h (0 Bft)
17.04.2007 09:00 12.2 C 66 % 1018.6 hPa 0.0 l/m 0.7 km/h (0 Bft) O-SO 1.00 h 1.6 UV-I 406 W/m 6.1 C 12.2 C 2.1 km/h (1 Bft)
17.04.2007 10:00 15.4 C 56 % 1018.4 hPa 0.0 l/m 1.6 km/h (1 Bft) S 1.00 h 2.8 UV-I 562 W/m 6.7 C 15.4 C 3.1 km/h (1 Bft)
17.04.2007 11:00 18.8 C 43 % 1018.2 hPa 0.0 l/m 2.8 km/h (1 Bft) W 1.00 h 4.1 UV-I 683 W/m 5.8 C 18.8 C 4.6 km/h (1 Bft)
17.04.2007 12:00 21.0 C 33 % 1017.5 hPa 0.0 l/m 3.4 km/h (1 Bft) W 1.00 h 5.1 UV-I 760 W/m 4.1 C 21.0 C 5.9 km/h (2 Bft)
17.04.2007 13:00 23.0 C 28 % 1016.7 hPa 0.0 l/m 4.8 km/h (1 Bft) W-NW 1.00 h 5.4 UV-I 783 W/m 3.3 C 23.0 C 7.7 km/h (2 Bft)
17.04.2007 14:00 24.3 C 25 % 1016.4 hPa 0.0 l/m 4.5 km/h (1 Bft) N 1.00 h 5.0 UV-I 761 W/m 2.9 C 24.3 C 7.1 km/h (2 Bft)
17.04.2007 15:00 24.8 C 21 % 1015.9 hPa 0.0 l/m 3.5 km/h (1 Bft) SO 1.00 h 3.9 UV-I 681 W/m 1.2 C 24.8 C 5.9 km/h (2 Bft)
17.04.2007 16:00 25.5 C 21 % 1015.5 hPa 0.0 l/m 3.3 km/h (1 Bft) W 1.00 h 2.5 UV-I 553 W/m 1.3 C 25.5 C 5.4 km/h (1 Bft)
17.04.2007 17:00 25.3 C 22 % 1015.1 hPa 0.0 l/m 4.5 km/h (1 Bft) W 1.00 h 1.3 UV-I 399 W/m 2.4 C 25.3 C 6.9 km/h (2 Bft)
17.04.2007 18:00 24.6 C 25 % 1015.1 hPa 0.0 l/m 5.4 km/h (1 Bft) W 0.78 h 0.6 UV-I 202 W/m 3.4 C 24.6 C 8.0 km/h (2 Bft)
17.04.2007 19:00 23.2 C 28 % 1015.1 hPa 0.0 l/m 3.5 km/h (1 Bft) W-SW 0.73 h 0.0 UV-I 79 W/m 3.7 C 23.2 C 5.7 km/h (1 Bft)
17.04.2007 20:00 19.4 C 37 % 1015.4 hPa 0.0 l/m 3.3 km/h (1 Bft) O-SO 0.00 h 0.0 UV-I 8 W/m 4.5 C 19.4 C 5.0 km/h (1 Bft)
17.04.2007 21:00 17.8 C 42 % 1016.0 hPa 0.0 l/m 0.7 km/h (0 Bft) O 0.00 h 0.0 UV-I 0 W/m 4.7 C 17.8 C 2.1 km/h (1 Bft)
17.04.2007 22:00 14.5 C 56 % 1016.2 hPa 0.0 l/m 1.5 km/h (1 Bft) O 0.00 h 0.0 UV-I 0 W/m 5.7 C 14.5 C 2.4 km/h (1 Bft)
17.04.2007 23:00 12.6 C 65 % 1016.4 hPa 0.0 l/m 4.4 km/h (1 Bft) O-SO 0.00 h 0.0 UV-I 0 W/m 6.2 C 12.6 C 6.0 km/h (2 Bft)
18.04.2007 00:00 12.0 C 65 % 1016.4 hPa 0.0 l/m 3.0 km/h (1 Bft) O-SO 0.00 h 0.0 UV-I 0 W/m 5.7 C 12.0 C 4.4 km/h (1 Bft)
18.04.2007 01:00 11.3 C 70 % 1016.8 hPa 0.0 l/m 1.2 km/h (1 Bft) O-SO 0.00 h 0.0 UV-I 0 W/m 6.1 C 11.3 C 2.1 km/h (1 Bft)
18.04.2007 02:00 11.0 C 73 % 1017.0 hPa 0.0 l/m 1.1 km/h (1 Bft) O-SO 0.00 h 0.0 UV-I 0 W/m 6.3 C 11.0 C 2.1 km/h (1 Bft)
18.04.2007 03:00 10.2 C 76 % 1017.4 hPa 0.0 l/m 0.9 km/h (0 Bft) SO 0.00 h 0.0 UV-I 0 W/m 6.1 C 10.2 C 1.8 km/h (1 Bft)
18.04.2007 04:00 9.8 C 78 % 1017.8 hPa 0.0 l/m 0.3 km/h (0 Bft) O-SO 0.00 h 0.0 UV-I 0 W/m 6.2 C 9.8 C 1.0 km/h (0 Bft)
18.04.2007 05:00 9.1 C 82 % 1018.1 hPa 0.0 l/m 0.4 km/h (0 Bft) O-SO 0.00 h 0.0 UV-I 0 W/m 6.2 C 9.1 C 1.1 km/h (0 Bft)
18.04.2007 06:00 9.4 C 83 % 1018.3 hPa 0.0 l/m 1.1 km/h (1 Bft) O 0.03 h 0.0 UV-I 13 W/m 6.7 C 9.4 C 2.5 km/h (1 Bft)
18.04.2007 07:00 10.5 C 80 % 1018.9 hPa 0.0 l/m 2.1 km/h (1 Bft) N 0.00 h 0.0 UV-I 49 W/m 7.2 C 10.5 C 3.7 km/h (1 Bft)
18.04.2007 08:00 11.6 C 74 % 1019.8 hPa 0.0 l/m 1.2 km/h (1 Bft) W 0.00 h 0.7 UV-I 163 W/m 7.1 C 11.6 C 2.7 km/h (1 Bft)
18.04.2007 09:00 12.4 C 70 % 1020.1 hPa 0.0 l/m 1.7 km/h (1 Bft) W 0.87 h 1.4 UV-I 305 W/m 7.1 C 12.4 C 3.2 km/h (1 Bft)
18.04.2007 10:00 13.5 C 67 % 1020.2 hPa 0.0 l/m 3.1 km/h (1 Bft) N-NW 0.15 h 1.8 UV-I 274 W/m 7.5 C 13.5 C 5.3 km/h (1 Bft)
18.04.2007 11:00 14.0 C 66 % 1020.2 hPa 0.0 l/m 5.4 km/h (1 Bft) N-NW 0.00 h 2.4 UV-I 304 W/m 7.6 C 14.0 C 8.6 km/h (2 Bft)
18.04.2007 12:00 15.0 C 63 % 1020.1 hPa 0.0 l/m 4.0 km/h (1 Bft) NW 0.72 h 4.0 UV-I 512 W/m 7.9 C 15.0 C 6.3 km/h (2 Bft)
18.04.2007 13:00 16.0 C 60 % 1019.7 hPa 0.0 l/m 3.6 km/h (1 Bft) W-NW 0.83 h 4.3 UV-I 540 W/m 8.1 C 16.0 C 5.9 km/h (2 Bft)
18.04.2007 14:00 17.0 C 57 % 1019.5 hPa 0.0 l/m 3.9 km/h (1 Bft) W-NW 0.95 h 4.2 UV-I 582 W/m 8.5 C 17.0 C 6.1 km/h (2 Bft)
18.04.2007 15:00 17.2 C 55 % 1019.2 hPa 0.0 l/m 5.4 km/h (1 Bft) W-NW 0.42 h 2.9 UV-I 431 W/m 8.1 C 17.2 C 8.6 km/h (2 Bft)
18.04.2007 16:00 17.1 C 53 % 1018.9 hPa 0.0 l/m 5.3 km/h (1 Bft) W-NW 0.00 h 1.9 UV-I 309 W/m 7.4 C 17.1 C 7.8 km/h (2 Bft)
18.04.2007 17:00 17.6 C 50 % 1018.7 hPa 0.0 l/m 3.8 km/h (1 Bft) NW 0.90 h 1.4 UV-I 344 W/m 7.2 C 17.6 C 6.3 km/h (2 Bft)
18.04.2007 18:00 17.4 C 45 % 1018.7 hPa 0.0 l/m 6.0 km/h (2 Bft) W-NW 0.73 h 0.7 UV-I 199 W/m 5.4 C 17.4 C 8.6 km/h (2 Bft)
18.04.2007 19:00 15.6 C 42 % 1018.9 hPa 0.0 l/m 3.7 km/h (1 Bft) W-NW 0.00 h 0.0 UV-I 42 W/m 2.6 C 15.6 C 6.1 km/h (2 Bft)
18.04.2007 20:00 14.6 C 40 % 1019.4 hPa 0.0 l/m 3.7 km/h (1 Bft) N-NW 0.00 h 0.0 UV-I 9 W/m 1.2 C 14.6 C 7.0 km/h (2 Bft)
18.04.2007 21:00 13.5 C 52 % 1020.2 hPa 0.0 l/m 6.4 km/h (2 Bft) N-NO 0.00 h 0.0 UV-I 0 W/m 3.8 C 13.5 C 11.8 km/h (2 Bft)
18.04.2007 22:00 12.4 C 53 % 1020.8 hPa 0.0 l/m 7.5 km/h (2 Bft) N 0.00 h 0.0 UV-I 0 W/m 3.1 C 12.4 C 14.2 km/h (3 Bft)
18.04.2007 23:00 11.2 C 54 % 1021.2 hPa 0.0 l/m 4.9 km/h (1 Bft) N 0.00 h 0.0 UV-I 0 W/m 2.2 C 11.2 C 8.5 km/h (2 Bft)
19.04.2007 00:00 10.0 C 56 % 1021.2 hPa 0.0 l/m 1.9 km/h (1 Bft) N 0.00 h 0.0 UV-I 0 W/m 1.5 C 10.0 C 4.3 km/h (1 Bft)
19.04.2007 01:00 9.1 C 57 % 1021.1 hPa 0.0 l/m 4.8 km/h (1 Bft) N 0.00 h 0.0 UV-I 0 W/m 1.0 C 8.7 C 9.0 km/h (2 Bft)
19.04.2007 02:00 8.3 C 59 % 1020.9 hPa 0.0 l/m 1.7 km/h (1 Bft) N-NO 0.00 h 0.0 UV-I 0 W/m 0.8 C 8.2 C 3.8 km/h (1 Bft)
19.04.2007 03:00 7.5 C 62 % 1020.8 hPa 0.0 l/m 1.0 km/h (0 Bft) N-NO 0.00 h 0.0 UV-I 0 W/m 0.8 C 7.5 C 2.9 km/h (1 Bft)
19.04.2007 04:00 6.9 C 65 % 1020.7 hPa 0.0 l/m 0.4 km/h (0 Bft) NO 0.00 h 0.0 UV-I 0 W/m 0.8 C 6.9 C 1.5 km/h (1 Bft)
19.04.2007 05:00 5.7 C 71 % 1020.6 hPa 0.0 l/m 1.2 km/h (1 Bft) O-SO 0.00 h 0.0 UV-I 0 W/m 0.7 C 5.6 C 2.5 km/h (1 Bft)
19.04.2007 06:00 4.8 C 75 % 1020.5 hPa 0.0 l/m 0.2 km/h (0 Bft) O 0.02 h 0.0 UV-I 12 W/m 0.8 C 4.8 C 0.9 km/h (0 Bft)
19.04.2007 07:00 5.0 C 77 % 1020.7 hPa 0.0 l/m 0.6 km/h (0 Bft) O 0.00 h 0.5 UV-I 54 W/m 1.2 C 5.0 C 1.7 km/h (1 Bft)
19.04.2007 08:00 7.3 C 70 % 1020.6 hPa 0.0 l/m 0.2 km/h (0 Bft) O 0.93 h 0.8 UV-I 227 W/m 2.3 C 7.3 C 1.1 km/h (1 Bft)
19.04.2007 09:00 9.9 C 57 % 1020.0 hPa 0.0 l/m 1.7 km/h (1 Bft) O 1.00 h 1.8 UV-I 395 W/m 1.9 C 9.9 C 4.0 km/h (1 Bft)
19.04.2007 10:00 12.3 C 53 % 1019.3 hPa 0.0 l/m 3.5 km/h (1 Bft) O 1.00 h 3.2 UV-I 547 W/m 3.0 C 12.3 C 6.9 km/h (2 Bft)
19.04.2007 11:00 14.5 C 49 % 1018.7 hPa 0.0 l/m 4.1 km/h (1 Bft) O-SO 1.00 h 4.6 UV-I 666 W/m 3.8 C 14.5 C 7.9 km/h (2 Bft)
19.04.2007 12:00 15.9 C 47 % 1018.0 hPa 0.0 l/m 7.3 km/h (2 Bft) O-SO 1.00 h 5.6 UV-I 736 W/m 4.7 C 15.9 C 11.9 km/h (2 Bft)
19.04.2007 13:00 17.2 C 46 % 1017.3 hPa 0.0 l/m 6.8 km/h (2 Bft) O-SO 1.00 h 6.0 UV-I 773 W/m 5.4 C 17.2 C 11.2 km/h (2 Bft)
19.04.2007 14:00 18.9 C 40 % 1016.6 hPa 0.0 l/m 3.9 km/h (1 Bft) O-SO 1.00 h 5.5 UV-I 748 W/m 5.1 C 18.9 C 7.5 km/h (2 Bft)
19.04.2007 15:00 19.9 C 36 % 1015.9 hPa 0.0 l/m 3.1 km/h (1 Bft) SO 1.00 h 4.4 UV-I 676 W/m 4.5 C 19.9 C 5.8 km/h (2 Bft)
19.04.2007 16:00 20.6 C 33 % 1015.2 hPa 0.0 l/m 3.3 km/h (1 Bft) O-SO 1.00 h 3.0 UV-I 563 W/m 3.7 C 20.6 C 6.0 km/h (2 Bft)
19.04.2007 17:00 21.0 C 29 % 1014.9 hPa 0.0 l/m 2.6 km/h (1 Bft) W 1.00 h 1.6 UV-I 407 W/m 2.2 C 21.0 C 4.6 km/h (1 Bft)
19.04.2007 18:00 20.6 C 29 % 1014.8 hPa 0.0 l/m 1.6 km/h (1 Bft) W-SW 1.00 h 0.7 UV-I 232 W/m 2.0 C 20.6 C 3.4 km/h (1 Bft)
19.04.2007 19:00 18.9 C 35 % 1014.7 hPa 0.0 l/m 0.7 km/h (0 Bft) S-SO 0.45 h 0.0 UV-I 78 W/m 3.0 C 18.9 C 1.9 km/h (1 Bft)
19.04.2007 20:00 15.8 C 46 % 1015.1 hPa 0.0 l/m 2.9 km/h (1 Bft) O-SO 0.03 h 0.0 UV-I 10 W/m 4.1 C 15.8 C 4.3 km/h (1 Bft)
19.04.2007 21:00 12.9 C 56 % 1015.7 hPa 0.0 l/m 3.0 km/h (1 Bft) O-SO 0.00 h 0.0 UV-I 0 W/m 4.4 C 12.9 C 4.2 km/h (1 Bft)
19.04.2007 22:00 10.9 C 64 % 1016.0 hPa 0.0 l/m 1.4 km/h (1 Bft) O-SO 0.00 h 0.0 UV-I 0 W/m 4.4 C 10.9 C 2.7 km/h (1 Bft)
19.04.2007 23:00 9.3 C 71 % 1016.2 hPa 0.0 l/m 2.9 km/h (1 Bft) O-SO 0.00 h 0.0 UV-I 0 W/m 4.4 C 9.3 C 4.1 km/h (1 Bft)
20.04.2007 00:00 8.5 C 75 % 1016.5 hPa 0.0 l/m 1.3 km/h (1 Bft) O 0.00 h 0.0 UV-I 0 W/m 4.4 C 8.5 C 2.2 km/h (1 Bft)
20.04.2007 01:00 7.4 C 80 % 1016.7 hPa 0.0 l/m 1.4 km/h (1 Bft) O-SO 0.00 h 0.0 UV-I 0 W/m 4.2 C 7.4 C 2.3 km/h (1 Bft)
20.04.2007 02:00 6.7 C 82 % 1016.8 hPa 0.0 l/m 1.4 km/h (1 Bft) O 0.00 h 0.0 UV-I 0 W/m 3.9 C 6.6 C 2.6 km/h (1 Bft)
20.04.2007 03:00 6.2 C 84 % 1017.0 hPa 0.0 l/m 0.3 km/h (0 Bft) O-SO 0.00 h 0.0 UV-I 0 W/m 3.7 C 6.2 C 0.9 km/h (0 Bft)
20.04.2007 04:00 5.3 C 87 % 1017.1 hPa 0.0 l/m 1.2 km/h (1 Bft) O-SO 0.00 h 0.0 UV-I 0 W/m 3.4 C 5.3 C 2.3 km/h (1 Bft)
20.04.2007 05:00 4.9 C 87 % 1017.1 hPa 0.0 l/m 0.7 km/h (0 Bft) O-SO 0.00 h 0.0 UV-I 0 W/m 2.9 C 4.9 C 1.6 km/h (1 Bft)
20.04.2007 06:00 4.1 C 89 % 1017.3 hPa 0.0 l/m 1.6 km/h (1 Bft) O-SO 0.02 h 0.0 UV-I 12 W/m 2.4 C 4.1 C 2.7 km/h (1 Bft)
20.04.2007 07:00 4.7 C 89 % 1017.9 hPa 0.0 l/m 1.2 km/h (1 Bft) O-SO 0.07 h 0.5 UV-I 45 W/m 3.1 C 4.7 C 2.0 km/h (1 Bft)
20.04.2007 08:00 7.2 C 81 % 1018.3 hPa 0.0 l/m 0.4 km/h (0 Bft) O-NO 1.00 h 0.9 UV-I 234 W/m 4.1 C 7.2 C 1.4 km/h (1 Bft)
20.04.2007 09:00 9.6 C 73 % 1018.3 hPa 0.0 l/m 1.1 km/h (0 Bft) N 1.00 h 1.8 UV-I 401 W/m 4.9 C 9.6 C 2.6 km/h (1 Bft)
20.04.2007 10:00 13.0 C 57 % 1018.4 hPa 0.0 l/m 2.8 km/h (1 Bft) W-NW 1.00 h 3.1 UV-I 556 W/m 4.7 C 13.0 C 4.7 km/h (1 Bft)
20.04.2007 11:00 16.5 C 46 % 1017.9 hPa 0.0 l/m 2.5 km/h (1 Bft) W-NW 1.00 h 4.5 UV-I 675 W/m 4.7 C 16.5 C 4.6 km/h (1 Bft)
20.04.2007 12:00 18.8 C 39 % 1017.7 hPa 0.0 l/m 2.7 km/h (1 Bft) O-SO 1.00 h 5.6 UV-I 752 W/m 4.4 C 18.8 C 5.3 km/h (1 Bft)
20.04.2007 13:00 20.2 C 35 % 1017.3 hPa 0.0 l/m 3.4 km/h (1 Bft) W-NW 1.00 h 5.9 UV-I 781 W/m 4.1 C 20.2 C 5.3 km/h (1 Bft)
20.04.2007 14:00 21.6 C 32 % 1016.9 hPa 0.0 l/m 3.3 km/h (1 Bft) W-NW 1.00 h 5.4 UV-I 747 W/m 4.0 C 21.6 C 5.5 km/h (1 Bft)
20.04.2007 15:00 22.3 C 30 % 1016.5 hPa 0.0 l/m 3.8 km/h (1 Bft) W 1.00 h 4.2 UV-I 669 W/m 3.8 C 22.3 C 6.2 km/h (2 Bft)
20.04.2007 16:00 22.6 C 28 % 1016.1 hPa 0.0 l/m 4.8 km/h (1 Bft) W 1.00 h 2.8 UV-I 543 W/m 3.4 C 22.6 C 7.1 km/h (2 Bft)
20.04.2007 17:00 22.7 C 28 % 1015.9 hPa 0.0 l/m 5.3 km/h (1 Bft) W-NW 1.00 h 1.6 UV-I 390 W/m 3.5 C 22.7 C 7.8 km/h (2 Bft)
20.04.2007 18:00 21.9 C 33 % 1015.8 hPa 0.0 l/m 5.4 km/h (1 Bft) W-NW 1.00 h 1.0 UV-I 221 W/m 4.7 C 21.9 C 8.0 km/h (2 Bft)
20.04.2007 19:00 20.4 C 38 % 1015.9 hPa 0.0 l/m 3.0 km/h (1 Bft) W 0.12 h 1.1 UV-I 72 W/m 5.5 C 20.4 C 4.8 km/h (1 Bft)
20.04.2007 20:00 18.4 C 41 % 1016.3 hPa 0.0 l/m 3.1 km/h (1 Bft) N-NW 0.02 h 0.0 UV-I 11 W/m 4.8 C 18.4 C 5.2 km/h (1 Bft)
20.04.2007 21:00 16.2 C 48 % 1017.1 hPa 0.0 l/m 0.5 km/h (0 Bft) N-NW 0.00 h 0.0 UV-I 0 W/m 5.2 C 16.2 C 2.0 km/h (1 Bft)
20.04.2007 22:00 14.5 C 57 % 1017.5 hPa 0.0 l/m 2.9 km/h (1 Bft) N 0.00 h 0.0 UV-I 0 W/m 6.1 C 14.5 C 5.6 km/h (1 Bft)
20.04.2007 23:00 14.0 C 56 % 1017.7 hPa 0.0 l/m 3.4 km/h (1 Bft) N 0.00 h 0.0 UV-I 0 W/m 5.4 C 14.0 C 6.8 km/h (2 Bft)
21.04.2007 00:00 12.7 C 57 % 1018.1 hPa 0.0 l/m 2.3 km/h (1 Bft) O 0.00 h 0.0 UV-I 0 W/m 4.4 C 12.7 C 5.1 km/h (1 Bft)
21.04.2007 01:00 11.5 C 60 % 1018.2 hPa 0.0 l/m 1.4 km/h (1 Bft) O-SO 0.00 h 0.0 UV-I 0 W/m 3.9 C 11.5 C 3.3 km/h (1 Bft)
21.04.2007 02:00 10.1 C 64 % 1018.3 hPa 0.0 l/m 1.0 km/h (0 Bft) O-NO 0.00 h 0.0 UV-I 0 W/m 3.7 C 10.1 C 2.7 km/h (1 Bft)
21.04.2007 03:00 9.0 C 70 % 1018.1 hPa 0.0 l/m 0.6 km/h (0 Bft) N-NO 0.00 h 0.0 UV-I 0 W/m 3.9 C 9.0 C 1.7 km/h (1 Bft)
21.04.2007 04:00 7.5 C 77 % 1018.2 hPa 0.0 l/m 0.0 km/h (0 Bft) N-NO 0.00 h 0.0 UV-I 0 W/m 3.8 C 7.5 C 0.4 km/h (0 Bft)
21.04.2007 05:00 6.5 C 81 % 1018.4 hPa 0.0 l/m 0.0 km/h (0 Bft) N-NO 0.00 h 0.0 UV-I 0 W/m 3.5 C 6.5 C 0.5 km/h (0 Bft)
21.04.2007 06:00 5.7 C 85 % 1018.7 hPa 0.0 l/m 0.0 km/h (0 Bft) N 0.00 h 0.0 UV-I 13 W/m 3.3 C 5.7 C 0.5 km/h (0 Bft)
21.04.2007 07:00 5.8 C 86 % 1019.5 hPa 0.0 l/m 0.1 km/h (0 Bft) N-NO 0.07 h 0.5 UV-I 49 W/m 3.5 C 5.8 C 0.6 km/h (0 Bft)
21.04.2007 08:00 8.1 C 78 % 1019.7 hPa 0.0 l/m 0.4 km/h (0 Bft) N-NO 1.00 h 1.0 UV-I 237 W/m 4.5 C 8.1 C 1.4 km/h (1 Bft)
21.04.2007 09:00 10.6 C 68 % 1019.8 hPa 0.0 l/m 1.2 km/h (1 Bft) N-NO 1.00 h 1.9 UV-I 405 W/m 5.0 C 10.6 C 2.7 km/h (1 Bft)
21.04.2007 10:00 13.9 C 57 % 1019.2 hPa 0.0 l/m 2.8 km/h (1 Bft) O-SO 1.00 h 3.2 UV-I 560 W/m 5.5 C 13.9 C 5.1 km/h (1 Bft)
21.04.2007 11:00 15.5 C 54 % 1018.7 hPa 0.0 l/m 3.2 km/h (1 Bft) W-NW 1.00 h 4.4 UV-I 679 W/m 6.3 C 15.5 C 5.5 km/h (1 Bft)
21.04.2007 12:00 18.0 C 48 % 1018.4 hPa 0.0 l/m 3.2 km/h (1 Bft) SO 1.00 h 5.4 UV-I 757 W/m 6.6 C 18.0 C 5.6 km/h (1 Bft)
21.04.2007 13:00 20.0 C 43 % 1017.8 hPa 0.0 l/m 3.0 km/h (1 Bft) N 1.00 h 5.5 UV-I 783 W/m 7.0 C 20.0 C 5.3 km/h (1 Bft)
21.04.2007 14:00 21.6 C 38 % 1017.3 hPa 0.0 l/m 3.6 km/h (1 Bft) W-NW 1.00 h 5.2 UV-I 761 W/m 6.5 C 21.6 C 5.8 km/h (2 Bft)
21.04.2007 15:00 22.6 C 32 % 1016.9 hPa 0.0 l/m 2.3 km/h (1 Bft) W-NW 1.00 h 4.3 UV-I 690 W/m 5.2 C 22.6 C 4.7 km/h (1 Bft)
21.04.2007 16:00 24.0 C 28 % 1016.7 hPa 0.0 l/m 4.4 km/h (1 Bft) W-SW 1.00 h 2.9 UV-I 574 W/m 4.1 C 24.0 C 6.9 km/h (2 Bft)
21.04.2007 17:00 24.2 C 21 % 1016.7 hPa 0.0 l/m 6.6 km/h (2 Bft) W 1.00 h 1.7 UV-I 430 W/m 0.5 C 24.2 C 9.9 km/h (2 Bft)
21.04.2007 18:00 23.8 C 22 % 1016.5 hPa 0.0 l/m 7.0 km/h (2 Bft) W 1.00 h 1.3 UV-I 257 W/m 0.8 C 23.8 C 10.3 km/h (2 Bft)
21.04.2007 19:00 22.2 C 21 % 1016.5 hPa 0.0 l/m 3.3 km/h (1 Bft) W 0.63 h 1.2 UV-I 91 W/m -1.3 C 22.2 C 5.7 km/h (1 Bft)
21.04.2007 20:00 19.1 C 28 % 1017.2 hPa 0.0 l/m 2.0 km/h (1 Bft) N 0.02 h 0.0 UV-I 11 W/m 0.4 C 19.1 C 3.9 km/h (1 Bft)
21.04.2007 21:00 15.4 C 44 % 1018.2 hPa 0.0 l/m 4.1 km/h (1 Bft) O-SO 0.00 h 0.0 UV-I 0 W/m 3.1 C 15.4 C 5.5 km/h (1 Bft)
21.04.2007 22:00 12.4 C 58 % 1018.8 hPa 0.0 l/m 2.4 km/h (1 Bft) O 0.00 h 0.0 UV-I 0 W/m 4.2 C 12.4 C 3.6 km/h (1 Bft)
21.04.2007 23:00 11.8 C 61 % 1019.1 hPa 0.0 l/m 0.7 km/h (0 Bft) O 0.00 h 0.0 UV-I 0 W/m 4.5 C 11.8 C 1.7 km/h (1 Bft)
22.04.2007 00:00 10.4 C 69 % 1019.4 hPa 0.0 l/m 1.2 km/h (1 Bft) O-NO 0.00 h 0.0 UV-I 0 W/m 4.9 C 10.3 C 2.4 km/h (1 Bft)
22.04.2007 01:00 9.5 C 73 % 1019.5 hPa 0.0 l/m 1.8 km/h (1 Bft) O-SO 0.00 h 0.0 UV-I 0 W/m 4.9 C 9.4 C 2.9 km/h (1 Bft)
22.04.2007 02:00 8.9 C 76 % 1019.6 hPa 0.0 l/m 0.8 km/h (0 Bft) O 0.00 h 0.0 UV-I 0 W/m 4.8 C 8.9 C 1.7 km/h (1 Bft)
22.04.2007 03:00 7.8 C 80 % 1019.8 hPa 0.0 l/m 0.4 km/h (0 Bft) O 0.00 h 0.0 UV-I 0 W/m 4.6 C 7.8 C 1.1 km/h (1 Bft)
22.04.2007 04:00 6.9 C 84 % 1019.9 hPa 0.0 l/m 0.7 km/h (0 Bft) O 0.00 h 0.0 UV-I 0 W/m 4.3 C 6.9 C 1.6 km/h (1 Bft)
22.04.2007 05:00 6.4 C 86 % 1020.3 hPa 0.0 l/m 0.5 km/h (0 Bft) O 0.00 h 0.0 UV-I 0 W/m 4.2 C 6.4 C 1.3 km/h (1 Bft)
22.04.2007 06:00 5.7 C 88 % 1020.7 hPa 0.0 l/m 0.2 km/h (0 Bft) O 0.02 h 0.0 UV-I 13 W/m 3.9 C 5.7 C 1.1 km/h (0 Bft)
22.04.2007 07:00 6.2 C 88 % 1021.4 hPa 0.0 l/m 0.1 km/h (0 Bft) O 0.10 h 0.7 UV-I 52 W/m 4.3 C 6.2 C 0.6 km/h (0 Bft)
22.04.2007 08:00 8.8 C 79 % 1021.8 hPa 0.0 l/m 0.1 km/h (0 Bft) O 1.00 h 1.0 UV-I 242 W/m 5.4 C 8.8 C 0.9 km/h (0 Bft)
22.04.2007 09:00 11.4 C 70 % 1021.7 hPa 0.0 l/m 0.7 km/h (0 Bft) NO 1.00 h 1.9 UV-I 405 W/m 6.2 C 11.4 C 2.2 km/h (1 Bft)
22.04.2007 10:00 14.6 C 60 % 1021.5 hPa 0.0 l/m 2.4 km/h (1 Bft) W-NW 1.00 h 3.2 UV-I 559 W/m 6.8 C 14.6 C 4.1 km/h (1 Bft)
22.04.2007 11:00 17.6 C 53 % 1021.2 hPa 0.0 l/m 2.6 km/h (1 Bft) W-NW 1.00 h 4.6 UV-I 677 W/m 7.8 C 17.6 C 4.6 km/h (1 Bft)
22.04.2007 12:00 20.0 C 46 % 1020.9 hPa 0.0 l/m 2.2 km/h (1 Bft) O-SO 1.00 h 5.6 UV-I 751 W/m 8.0 C 20.0 C 4.3 km/h (1 Bft)
22.04.2007 13:00 22.3 C 39 % 1020.4 hPa 0.0 l/m 2.5 km/h (1 Bft) W-NW 1.00 h 6.0 UV-I 787 W/m 7.7 C 22.3 C 4.6 km/h (1 Bft)
22.04.2007 14:00 23.9 C 35 % 1019.9 hPa 0.0 l/m 3.6 km/h (1 Bft) O-SO 1.00 h 5.5 UV-I 759 W/m 7.5 C 23.9 C 6.0 km/h (2 Bft)
22.04.2007 15:00 25.2 C 27 % 1019.7 hPa 0.0 l/m 5.3 km/h (1 Bft) W-NW 1.00 h 4.5 UV-I 690 W/m 5.0 C 25.2 C 8.2 km/h (2 Bft)
22.04.2007 16:00 26.0 C 23 % 1019.3 hPa 0.0 l/m 6.2 km/h (2 Bft) W-NW 1.00 h 3.1 UV-I 580 W/m 3.1 C 26.0 C 9.4 km/h (2 Bft)
22.04.2007 17:00 25.8 C 27 % 1018.9 hPa 0.0 l/m 6.4 km/h (2 Bft) W-NW 1.00 h 1.7 UV-I 418 W/m 5.2 C 25.8 C 9.5 km/h (2 Bft)
22.04.2007 18:00 24.8 C 30 % 1019.1 hPa 0.0 l/m 7.4 km/h (2 Bft) W-NW 1.00 h 1.2 UV-I 240 W/m 6.0 C 24.8 C 10.6 km/h (2 Bft)
22.04.2007 19:00 23.2 C 35 % 1019.3 hPa 0.0 l/m 7.1 km/h (2 Bft) W-NW 0.38 h 1.1 UV-I 83 W/m 6.8 C 23.2 C 10.0 km/h (2 Bft)
22.04.2007 20:00 20.2 C 45 % 1020.0 hPa 0.0 l/m 2.7 km/h (1 Bft) O-SO 0.03 h 0.0 UV-I 13 W/m 7.8 C 20.2 C 4.5 km/h (1 Bft)
22.04.2007 21:00 16.7 C 58 % 1020.8 hPa 0.0 l/m 3.8 km/h (1 Bft) O-SO 0.00 h 0.0 UV-I 0 W/m 8.5 C 16.7 C 5.1 km/h (1 Bft)
22.04.2007 22:00 14.8 C 64 % 1021.3 hPa 0.0 l/m 1.2 km/h (1 Bft) O 0.00 h 0.0 UV-I 0 W/m 8.2 C 14.8 C 2.4 km/h (1 Bft)
22.04.2007 23:00 13.0 C 70 % 1021.5 hPa 0.0 l/m 0.5 km/h (0 Bft) O 0.00 h 0.0 UV-I 0 W/m 7.7 C 13.0 C 1.4 km/h (1 Bft)
Min-Datum _ 20.04.07 17.04.07 19.04.07 - 16.04.07 - - - - 21.04.07 20.04.07 16.04.07
_ Min-Zeit 06:43 15:55 19:00 - 00:02 - - - - 19:27 07:06 00:02
Minimum _ 3.6 C 17 % 1014.6 hPa - 0.0 km/h (0 Bft) - - - - -3.1 C 2.7 C 0.0 km/h (0 Bft)
Max-Datum _ 22.04.07 20.04.07 22.04.07 16.04.07 16.04.07 - 16.04.07 19.04.07 22.04.07 16.04.07 22.04.07 16.04.07
_ Max-Zeit 16:18 07:10 08:15 00:00 14:04 - 06:48 13:18 13:30 14:08 16:18 14:04
Maximum _ 26.3 C 92 % 1021.9 hPa 0.0 l/m 19.6 km/h
O-SO (3 Bft)
- 0.02 h 6.1 UV-I 793 W/m 9.8 C 26.3 C 24.3 km/h
O-SO (4 Bft)
Durchschnitt _ 14.6 C 56 % 1018.3 hPa #0.0 l/m 2.7 km/h (1 Bft) O-SO #74:42 h 2.9 UV-I 392 W/m 4.8 C 14.5 C 4.6 km/h (1 Bft)
© Kaiko 2007